Time;durP1;ratioP1;P1;durP2;ratioP2;P2;SDS_P1;SDS_P2;PMS_P1;PMS_P2;Temp;Humidity;BMP_temperature;BMP_pressure;BME280_temperature;BME280_humidity;BME280_pressure;Samples;Min_cycle;Max_cycle;Signal;HPM_P1;HPM_P2
2022/10/11 00:00:44;;;;;;;;;;;;;;;8.58;100.00;100659.75;3057016;19;19919;-58
2022/10/11 00:01:59;;;;;;;;;;;;;;;8.58;100.00;100657.94;3057450;19;20325;-60
2022/10/11 00:03:14;;;;;;;;;;;;;;;8.55;100.00;100654.59;3057055;19;20356;-53
2022/10/11 00:04:26;;;;;;;;;;;;;;;8.52;100.00;100657.41;3056841;19;19993;-55
2022/10/11 00:05:40;;;;;;;;;;;;;;;8.50;100.00;100661.94;3057356;19;19926;-59
2022/10/11 00:06:53;;;;;;;;;;;;;;;8.48;100.00;100655.81;3057093;19;19982;-59
2022/10/11 00:08:08;;;;;;;;;;;;;;;8.46;100.00;100658.56;3056644;19;19930;-55
2022/10/11 00:09:10;;;;;;;;;;;;;;;8.44;100.00;100655.16;3055805;19;19911;-58
2022/10/11 00:10:25;;;;;;;;;;;;;;;8.41;100.00;100657.94;3057333;19;19915;-56
2022/10/11 00:11:40;;;;;;;;;;;;;;;8.38;100.00;100646.59;3056973;19;20345;-57
2022/10/11 00:12:52;;;;;;;;;;;;;;;8.37;100.00;100652.84;3057381;19;19934;-57
2022/10/11 00:13:56;;;;;;;;;;;;;;;8.35;100.00;100649.41;3056774;19;20344;-59
2022/10/11 00:15:13;;;;;;;;;;;;;;;8.32;100.00;100657.56;3057010;19;19915;-57
2022/10/11 00:16:25;;;;;;;;;;;;;;;8.28;100.00;100655.00;3057313;19;20594;-57
2022/10/11 00:17:39;;;;;;;;;;;;;;;8.27;100.00;100657.72;3056911;19;20389;-53
2022/10/11 00:18:41;;;;;;;;;;;;;;;8.25;100.00;100656.94;3057041;19;20544;-60
2022/10/11 00:19:56;;;;;;;;;;;;;;;8.25;100.00;100655.16;3056728;19;20274;-58
2022/10/11 00:21:09;;;;;;;;;;;;;;;8.23;100.00;100657.00;3057451;19;19950;-59
2022/10/11 00:22:24;;;;;;;;;;;;;;;8.21;100.00;100653.56;3056132;19;19966;-56
2022/10/11 00:23:38;;;;;;;;;;;;;;;8.20;100.00;100657.19;3056169;19;19934;-55
2022/10/11 00:24:51;;;;;;;;;;;;;;;8.19;100.00;100649.28;3057230;19;19974;-58
2022/10/11 00:26:07;;;;;;;;;;;;;;;8.18;100.00;100656.41;3056745;19;20573;-59
2022/10/11 00:27:22;;;;;;;;;;;;;;;8.15;100.00;100648.56;3057141;19;19925;-56
2022/10/11 00:28:24;;;;;;;;;;;;;;;8.14;100.00;100649.50;3055754;19;19931;-52
2022/10/11 00:29:39;;;;;;;;;;;;;;;8.13;100.00;100649.56;3056666;19;19925;-55
2022/10/11 00:30:41;;;;;;;;;;;;;;;8.12;100.00;100654.03;3056813;19;19923;-53
2022/10/11 00:31:46;;;;;;;;;;;;;;;8.10;100.00;100645.25;3054803;19;20424;-56
2022/10/11 00:32:58;;;;;;;;;;;;;;;8.09;100.00;100645.38;3056146;19;19931;-55
2022/10/11 00:34:14;;;;;;;;;;;;;;;8.08;100.00;100647.16;3056606;19;20310;-54
2022/10/11 00:35:26;;;;;;;;;;;;;;;8.06;100.00;100649.03;3057043;19;19927;-56
2022/10/11 00:36:31;;;;;;;;;;;;;;;8.03;100.00;100651.81;3055194;19;19941;-53
2022/10/11 00:37:43;;;;;;;;;;;;;;;8.02;100.00;100642.13;3055539;19;19927;-56
2022/10/11 00:38:57;;;;;;;;;;;;;;;8.01;100.00;100643.06;3056440;19;19922;-59
2022/10/11 00:40:12;;;;;;;;;;;;;;;7.99;100.00;100639.59;3056632;19;19926;-57
2022/10/11 00:41:27;;;;;;;;;;;;;;;7.97;100.00;100634.34;3056049;19;19923;-55
2022/10/11 00:42:42;;;;;;;;;;;;;;;7.97;100.00;100638.81;3056196;19;19936;-53
2022/10/11 00:44:09;;;;;;;;;;;;;;;7.96;100.00;100639.78;3057050;19;19923;-60
2022/10/11 00:45:28;;;;;;;;;;;;;;;7.95;100.00;100635.41;3056541;19;19930;-53
2022/10/11 00:46:44;;;;;;;;;;;;;;;7.94;100.00;100628.34;3056695;19;19978;-57
2022/10/11 00:48:03;;;;;;;;;;;;;;;7.93;100.00;100632.81;3055561;19;19925;-57
2022/10/11 00:49:25;;;;;;;;;;;;;;;7.92;100.00;100627.56;3054928;19;19923;-59
2022/10/11 00:50:37;;;;;;;;;;;;;;;7.93;100.00;100626.63;3055447;19;19918;-56
2022/10/11 00:51:53;;;;;;;;;;;;;;;7.94;100.00;100626.56;3055615;19;19927;-58
2022/10/11 00:53:06;;;;;;;;;;;;;;;7.95;100.00;100624.78;3055317;19;20279;-55
2022/10/11 00:54:22;;;;;;;;;;;;;;;7.94;100.00;100625.69;3055831;19;19922;-59
2022/10/11 00:55:35;;;;;;;;;;;;;;;7.93;100.00;100616.00;3055761;19;19939;-55
2022/10/11 00:56:40;;;;;;;;;;;;;;;7.93;100.00;100616.00;3055838;19;20082;-59
2022/10/11 00:57:53;;;;;;;;;;;;;;;7.93;100.00;100619.53;3056751;19;19990;-53
2022/10/11 00:59:10;;;;;;;;;;;;;;;7.92;100.00;100619.59;3055473;19;19923;-53
2022/10/11 01:00:22;;;;;;;;;;;;;;;7.91;100.00;100618.72;3056039;19;19923;-52
2022/10/11 01:01:37;;;;;;;;;;;;;;;7.90;100.00;100616.16;3056278;19;19923;-55
2022/10/11 01:02:52;;;;;;;;;;;;;;;7.89;100.00;100619.72;3056399;19;19915;-53
2022/10/11 01:04:04;;;;;;;;;;;;;;;7.89;100.00;100617.06;3056339;19;19923;-57
2022/10/11 01:05:19;;;;;;;;;;;;;;;7.88;100.00;100607.38;3056534;19;19978;-57
2022/10/11 01:06:36;;;;;;;;;;;;;;;7.88;100.00;100612.69;3056489;19;20058;-53
2022/10/11 01:07:40;;;;;;;;;;;;;;;7.88;100.00;100602.94;3054827;19;19922;-57
2022/10/11 01:08:42;;;;;;;;;;;;;;;7.88;100.00;100608.25;3055472;19;19915;-61
2022/10/11 01:09:57;;;;;;;;;;;;;;;7.88;100.00;100613.56;3055434;19;19923;-55
2022/10/11 01:11:11;;;;;;;;;;;;;;;7.90;100.00;100605.50;3056021;19;19915;-56
2022/10/11 01:12:26;;;;;;;;;;;;;;;7.91;100.00;100604.59;3056463;19;19946;-56
2022/10/11 01:13:47;;;;;;;;;;;;;;;7.95;100.00;100600.84;3055280;19;20382;-58
2022/10/11 01:15:04;;;;;;;;;;;;;;;7.97;100.00;100604.25;3056118;19;19942;-59
2022/10/11 01:16:19;;;;;;;;;;;;;;;7.97;100.00;100597.16;3056275;19;19925;-53
2022/10/11 01:17:37;;;;;;;;;;;;;;;8.01;100.00;100597.88;3056375;19;19946;-57
2022/10/11 01:18:59;;;;;;;;;;;;;;;8.05;100.00;100594.16;3055597;19;19926;-52
2022/10/11 01:20:14;;;;;;;;;;;;;;;8.09;100.00;100601.00;3055133;19;19919;-54
2022/10/11 01:21:40;;;;;;;;;;;;;;;8.13;100.00;100597.28;3055729;19;20345;-55
2022/10/11 01:23:04;;;;;;;;;;;;;;;8.17;100.00;100593.53;3056122;19;20333;-58
2022/10/11 01:24:32;;;;;;;;;;;;;;;8.21;100.00;100592.41;3056139;19;19929;-58
2022/10/11 01:25:50;;;;;;;;;;;;;;;8.26;100.00;100592.19;3055359;19;19922;-58
2022/10/11 01:26:59;;;;;;;;;;;;;;;8.30;100.00;100591.97;3055388;19;19918;-58
2022/10/11 01:28:11;;;;;;;;;;;;;;;8.35;100.00;100593.56;3055172;19;20114;-56
2022/10/11 01:29:32;;;;;;;;;;;;;;;8.40;100.00;100594.19;3055438;19;20337;-55
2022/10/11 01:30:34;;;;;;;;;;;;;;;8.44;100.00;100593.13;3055615;19;19923;-53
2022/10/11 01:31:38;;;;;;;;;;;;;;;8.48;100.00;100592.00;3054591;19;19927;-53
2022/10/11 01:32:50;;;;;;;;;;;;;;;8.52;100.00;100582.94;3055283;19;20298;-56
2022/10/11 01:34:11;;;;;;;;;;;;;;;8.55;100.00;100582.78;3055871;19;20364;-59
2022/10/11 01:35:24;;;;;;;;;;;;;;;8.60;100.00;100594.03;3056437;19;19930;-55
2022/10/11 01:36:39;;;;;;;;;;;;;;;8.62;100.00;100594.81;3055854;19;20710;-55
2022/10/11 01:38:06;;;;;;;;;;;;;;;8.65;100.00;100590.19;3055745;19;19915;-60
2022/10/11 01:39:22;;;;;;;;;;;;;;;8.68;100.00;100593.66;3056192;19;19933;-53
2022/10/11 01:40:41;;;;;;;;;;;;;;;8.70;100.00;100592.59;3054816;19;19974;-57
2022/10/11 01:41:57;;;;;;;;;;;;;;;8.71;100.00;100599.66;3055743;19;19919;-51
2022/10/11 01:43:09;;;;;;;;;;;;;;;8.75;100.00;100592.38;3054960;19;20328;-57
2022/10/11 01:44:24;;;;;;;;;;;;;;;8.78;100.00;100595.75;3055237;19;20046;-57
2022/10/11 01:45:36;;;;;;;;;;;;;;;8.78;100.00;100601.06;3055252;19;20239;-53
2022/10/11 01:46:52;;;;;;;;;;;;;;;8.78;100.00;100601.06;3055143;19;20101;-55
2022/10/11 01:48:08;;;;;;;;;;;;;;;8.82;100.00;100602.59;3057139;19;19986;-55
2022/10/11 01:49:10;;;;;;;;;;;;;;;8.80;100.00;100588.56;3058681;19;19925;-53
2022/10/11 01:50:40;;;;;;;;;;;;;;;8.86;100.00;100598.84;3059076;19;19927;-54
2022/10/11 01:51:55;;;;;;;;;;;;;;;8.87;100.00;100597.91;3058968;19;19925;-53
2022/10/11 01:53:26;;;;;;;;;;;;;;;8.91;100.00;100594.16;3057990;19;20006;-54
2022/10/11 01:54:40;;;;;;;;;;;;;;;8.93;100.00;100602.94;3058531;19;19927;-58
2022/10/11 01:56:18;;;;;;;;;;;;;;;8.95;100.00;100603.69;3059005;19;19934;-55
2022/10/11 01:57:37;;;;;;;;;;;;;;;8.97;100.00;100607.13;3059077;19;19974;-55
2022/10/11 01:59:10;;;;;;;;;;;;;;;8.98;100.00;100602.66;3058407;19;19922;-53
2022/10/11 02:00:24;;;;;;;;;;;;;;;9.00;100.00;100601.66;3059135;19;19967;-56
2022/10/11 02:01:44;;;;;;;;;;;;;;;9.03;100.00;100606.81;3058389;19;20683;-57
2022/10/11 02:02:59;;;;;;;;;;;;;;;9.05;100.00;100598.75;3058685;19;19922;-55
2022/10/11 02:04:23;;;;;;;;;;;;;;;9.09;100.00;100599.44;3058818;19;19922;-58
2022/10/11 02:06:01;;;;;;;;;;;;;;;9.09;100.00;100599.44;3058645;19;19942;-57
2022/10/11 02:07:18;;;;;;;;;;;;;;;9.12;100.00;100599.28;3058725;19;19955;-58
2022/10/11 02:08:35;;;;;;;;;;;;;;;9.13;100.00;100585.03;3058837;19;20334;-52
2022/10/11 02:09:59;;;;;;;;;;;;;;;9.15;100.00;100591.13;3058445;19;19929;-53
2022/10/11 02:11:17;;;;;;;;;;;;;;;9.17;100.00;100589.25;3058001;19;20308;-54
2022/10/11 02:12:39;;;;;;;;;;;;;;;9.20;100.00;100591.72;3058553;19;20322;-54
2022/10/11 02:14:12;;;;;;;;;;;;;;;9.23;100.00;100591.56;3057805;19;19982;-57
2022/10/11 02:15:24;;;;;;;;;;;;;;;9.27;100.00;100590.47;3058882;19;19982;-54
2022/10/11 02:16:40;;;;;;;;;;;;;;;9.30;100.00;100595.59;3057703;19;19945;-55
2022/10/11 02:17:44;;;;;;;;;;;;;;;9.31;100.00;100589.31;3058217;19;19994;-52
2022/10/11 02:18:58;;;;;;;;;;;;;;;9.34;100.00;100599.81;3057814;19;19923;-58
2022/10/11 02:20:12;;;;;;;;;;;;;;;9.34;100.00;100597.16;3058126;19;19919;-57
2022/10/11 02:21:17;;;;;;;;;;;;;;;9.34;100.00;100594.50;3057527;19;19922;-54
2022/10/11 02:22:30;;;;;;;;;;;;;;;9.35;100.00;100598.88;3057785;19;19932;-55
2022/10/11 02:23:52;;;;;;;;;;;;;;;9.35;100.00;100597.09;3058211;19;19923;-58
2022/10/11 02:25:06;;;;;;;;;;;;;;;9.35;100.00;100594.41;3057875;19;19935;-59
2022/10/11 02:26:21;;;;;;;;;;;;;;;9.35;100.00;100594.41;3057707;19;20019;-54
2022/10/11 02:27:33;;;;;;;;;;;;;;;9.36;100.00;100592.63;3058017;19;19919;-60
2022/10/11 02:28:48;;;;;;;;;;;;;;;9.36;100.00;100592.63;3058889;19;19929;-53
2022/10/11 02:30:01;;;;;;;;;;;;;;;9.36;100.00;100588.16;3058239;19;20067;-55
2022/10/11 02:31:16;;;;;;;;;;;;;;;9.36;100.00;100597.94;3057021;19;19986;-56
2022/10/11 02:32:28;;;;;;;;;;;;;;;9.36;100.00;100597.94;3058025;19;20416;-58
2022/10/11 02:33:46;;;;;;;;;;;;;;;9.37;100.00;100589.00;3057405;19;19926;-58
2022/10/11 02:34:59;;;;;;;;;;;;;;;9.37;100.00;100589.00;3057381;19;20480;-55
2022/10/11 02:36:16;;;;;;;;;;;;;;;9.38;100.00;100596.06;3057768;19;19930;-53
2022/10/11 02:37:40;;;;;;;;;;;;;;;9.38;100.00;100599.59;3056932;19;19927;-58
2022/10/11 02:38:56;;;;;;;;;;;;;;;9.39;100.00;100595.97;3058638;19;19931;-55
2022/10/11 02:40:08;;;;;;;;;;;;;;;9.42;100.00;100591.44;3056872;19;19922;-55
2022/10/11 02:41:25;;;;;;;;;;;;;;;9.43;100.00;100593.97;3056389;19;20022;-54
2022/10/11 02:43:00;;;;;;;;;;;;;;;9.45;100.00;100593.91;3057676;19;19929;-57
2022/10/11 02:44:13;;;;;;;;;;;;;;;9.45;100.00;100600.09;3057401;19;19915;-58
2022/10/11 02:45:29;;;;;;;;;;;;;;;9.47;100.00;100595.53;3057434;19;20258;-57
2022/10/11 02:46:42;;;;;;;;;;;;;;;9.50;100.00;100605.19;3057566;19;19929;-52
2022/10/11 02:47:56;;;;;;;;;;;;;;;9.52;100.00;100603.28;3057227;19;19919;-60
2022/10/11 02:49:08;;;;;;;;;;;;;;;9.54;100.00;100593.41;3057276;19;20270;-59
2022/10/11 02:50:13;;;;;;;;;;;;;;;9.56;100.00;100599.50;3057258;19;19926;-54
2022/10/11 02:51:28;;;;;;;;;;;;;;;9.59;100.00;100599.34;3057136;19;19986;-53
2022/10/11 02:52:30;;;;;;;;;;;;;;;9.60;100.00;100607.25;3057361;19;20608;-56
2022/10/11 02:53:45;;;;;;;;;;;;;;;9.64;100.00;100603.47;3057492;19;19918;-62
2022/10/11 02:54:57;;;;;;;;;;;;;;;9.68;100.00;100602.34;3057953;19;19947;-59
2022/10/11 02:56:01;;;;;;;;;;;;;;;9.70;100.00;100600.44;3056794;19;20405;-61
2022/10/11 02:57:14;;;;;;;;;;;;;;;9.71;100.00;100599.50;3057844;19;20015;-55
2022/10/11 02:58:28;;;;;;;;;;;;;;;9.71;100.00;100599.50;3057936;19;19915;-53
2022/10/11 02:59:40;;;;;;;;;;;;;;;9.73;100.00;100602.94;3056446;19;19922;-52
2022/10/11 03:00:55;;;;;;;;;;;;;;;9.74;100.00;100610.00;3058329;19;19923;-54
2022/10/11 03:02:10;;;;;;;;;;;;;;;9.76;100.00;100607.25;3057664;19;19982;-57
2022/10/11 03:03:22;;;;;;;;;;;;;;;9.77;100.00;100611.66;3058034;19;19923;-57
2022/10/11 03:04:36;;;;;;;;;;;;;;;9.79;100.00;100611.53;3058037;19;19925;-52
2022/10/11 03:05:48;;;;;;;;;;;;;;;9.80;100.00;100610.59;3058340;19;19954;-55
2022/10/11 03:07:03;;;;;;;;;;;;;;;9.81;100.00;100607.84;3058115;19;19926;-56
2022/10/11 03:08:15;;;;;;;;;;;;;;;9.83;100.00;100610.41;3057542;19;20001;-56
2022/10/11 03:09:20;;;;;;;;;;;;;;;9.84;100.00;100604.16;3056608;19;19923;-56
2022/10/11 03:10:32;;;;;;;;;;;;;;;9.84;100.00;100605.00;3057191;19;19975;-55
2022/10/11 03:11:37;;;;;;;;;;;;;;;9.86;100.00;100611.13;3056563;19;19990;-59
2022/10/11 03:12:49;;;;;;;;;;;;;;;9.87;100.00;100611.97;3057957;19;20247;-57
2022/10/11 03:14:04;;;;;;;;;;;;;;;9.89;100.00;100607.41;3058330;19;19922;-52
2022/10/11 03:15:16;;;;;;;;;;;;;;;9.90;100.00;100609.16;3058130;19;20270;-55
2022/10/11 03:16:31;;;;;;;;;;;;;;;9.91;100.00;100606.38;3058085;19;20262;-52
2022/10/11 03:17:45;;;;;;;;;;;;;;;9.93;100.00;100611.63;3057392;19;19950;-53
2022/10/11 03:19:00;;;;;;;;;;;;;;;9.96;100.00;100617.63;3057766;19;19958;-51
2022/10/11 03:20:12;;;;;;;;;;;;;;;9.97;100.00;100611.38;3058080;19;19922;-58
2022/10/11 03:21:27;;;;;;;;;;;;;;;9.98;100.00;100612.22;3057587;19;19945;-57
2022/10/11 03:22:39;;;;;;;;;;;;;;;10.00;100.00;100611.19;3057964;19;20048;-55
2022/10/11 03:23:54;;;;;;;;;;;;;;;10.05;100.00;100613.56;3058118;19;19919;-58
2022/10/11 03:24:56;;;;;;;;;;;;;;;10.07;100.00;100614.34;3057295;19;19915;-52
2022/10/11 03:26:17;;;;;;;;;;;;;;;10.08;100.00;100613.41;3057791;19;19928;-52
2022/10/11 03:27:29;;;;;;;;;;;;;;;10.11;100.00;100614.09;3057788;19;20252;-54
2022/10/11 03:28:44;;;;;;;;;;;;;;;10.14;100.00;100606.88;3057748;19;19923;-51
2022/10/11 03:29:46;;;;;;;;;;;;;;;10.17;100.00;100612.88;3057654;19;20430;-54
2022/10/11 03:31:00;;;;;;;;;;;;;;;10.21;100.00;100618.94;3057737;19;19915;-53
2022/10/11 03:32:02;;;;;;;;;;;;;;;10.22;100.00;100617.97;3057518;19;19919;-56
2022/10/11 03:33:17;;;;;;;;;;;;;;;10.23;100.00;100623.22;3057638;19;19942;-53
2022/10/11 03:34:19;;;;;;;;;;;;;;;10.25;100.00;100624.00;3057693;19;19922;-58
2022/10/11 03:35:34;;;;;;;;;;;;;;;10.27;100.00;100622.09;3057559;19;19923;-57
2022/10/11 03:36:38;;;;;;;;;;;;;;;10.29;100.00;100617.53;3057818;19;19938;-59
2022/10/11 03:37:50;;;;;;;;;;;;;;;10.29;100.00;100614.84;3057475;19;19961;-59
2022/10/11 03:39:05;;;;;;;;;;;;;;;10.32;100.00;100625.34;3057772;19;19922;-55
2022/10/11 03:40:17;;;;;;;;;;;;;;;10.33;100.00;100629.75;3057458;19;20258;-55
2022/10/11 03:41:32;;;;;;;;;;;;;;;10.33;100.00;100635.09;3057397;19;20384;-54
2022/10/11 03:42:44;;;;;;;;;;;;;;;10.31;100.00;100636.97;3057693;19;19923;-61
2022/10/11 03:43:59;;;;;;;;;;;;;;;10.32;100.00;100632.50;3057330;19;19919;-56
2022/10/11 03:45:11;;;;;;;;;;;;;;;10.33;100.00;100635.09;3057623;19;19919;-53
2022/10/11 03:46:25;;;;;;;;;;;;;;;10.31;100.00;100642.31;3056909;19;19939;-56
2022/10/11 03:47:41;;;;;;;;;;;;;;;10.28;100.00;100634.47;3057345;19;19945;-55
2022/10/11 03:48:53;;;;;;;;;;;;;;;10.27;100.00;100630.09;3057514;19;20500;-55
2022/10/11 03:50:09;;;;;;;;;;;;;;;10.25;100.00;100626.69;3057419;19;19945;-57
2022/10/11 03:51:21;;;;;;;;;;;;;;;10.23;100.00;100633.91;3057537;19;19957;-57
2022/10/11 03:52:36;;;;;;;;;;;;;;;10.20;100.00;100633.22;3056742;19;19914;-59
2022/10/11 03:53:48;;;;;;;;;;;;;;;10.17;100.00;100638.69;3057437;19;19939;-55
2022/10/11 03:55:03;;;;;;;;;;;;;;;10.12;100.00;100633.63;3059031;19;19927;-56
2022/10/11 03:56:17;;;;;;;;;;;;;;;10.09;100.00;100639.13;3057393;19;19918;-52
2022/10/11 03:57:29;;;;;;;;;;;;;;;10.05;100.00;100638.44;3057526;19;19919;-56
2022/10/11 03:58:44;;;;;;;;;;;;;;;10.02;100.00;100640.44;3057110;19;19919;-57
2022/10/11 03:59:56;;;;;;;;;;;;;;;9.97;100.00;100634.50;3057596;19;19946;-54
2022/10/11 04:01:11;;;;;;;;;;;;;;;9.93;100.00;100630.28;3059278;19;20001;-57
2022/10/11 04:02:26;;;;;;;;;;;;;;;9.87;100.00;100627.97;3057439;19;19914;-54
2022/10/11 04:03:38;;;;;;;;;;;;;;;9.83;100.00;100631.75;3057095;19;20359;-53
2022/10/11 04:04:52;;;;;;;;;;;;;;;9.74;100.00;100626.00;3057112;19;20334;-53
2022/10/11 04:06:05;;;;;;;;;;;;;;;9.69;100.00;100627.19;3056581;19;19923;-54
2022/10/11 04:07:20;;;;;;;;;;;;;;;9.62;100.00;100637.34;3057476;19;19950;-54
2022/10/11 04:08:32;;;;;;;;;;;;;;;9.56;100.00;100637.66;3057187;19;19951;-54
2022/10/11 04:09:47;;;;;;;;;;;;;;;9.50;100.00;100627.34;3057536;19;19930;-56
2022/10/11 04:10:59;;;;;;;;;;;;;;;9.44;100.00;100627.66;3056136;19;19923;-58
2022/10/11 04:12:13;;;;;;;;;;;;;;;9.33;100.00;100611.41;3055662;19;19926;-55
2022/10/11 04:13:28;;;;;;;;;;;;;;;9.34;100.00;100621.13;3056926;19;19923;-58
2022/10/11 04:14:40;;;;;;;;;;;;;;;9.28;100.00;100622.34;3057317;19;19956;-56
2022/10/11 04:15:55;;;;;;;;;;;;;;;9.25;100.00;100611.00;3057139;19;19922;-53
2022/10/11 04:17:07;;;;;;;;;;;;;;;9.21;100.00;100614.75;3056592;19;19923;-55
2022/10/11 04:18:21;;;;;;;;;;;;;;;9.19;100.00;100613.97;3056639;19;19990;-56
2022/10/11 04:19:37;;;;;;;;;;;;;;;9.18;100.00;100614.91;3058749;19;19918;-54
2022/10/11 04:20:49;;;;;;;;;;;;;;;9.18;100.00;100612.25;3057156;19;21166;-55
2022/10/11 04:22:04;;;;;;;;;;;;;;;9.18;100.00;100606.91;3057275;19;20014;-58
2022/10/11 04:23:18;;;;;;;;;;;;;;;9.19;100.00;100601.50;3058416;19;19935;-60
2022/10/11 04:24:35;;;;;;;;;;;;;;;9.22;100.00;100603.16;3056435;19;19927;-60
2022/10/11 04:26:01;;;;;;;;;;;;;;;9.24;100.00;100603.94;3056558;19;19914;-55
2022/10/11 04:27:16;;;;;;;;;;;;;;;9.27;100.00;100609.09;3056499;19;19946;-57
2022/10/11 04:28:28;;;;;;;;;;;;;;;9.28;100.00;100605.50;3056979;19;20371;-57
2022/10/11 04:29:43;;;;;;;;;;;;;;;9.30;100.00;100603.59;3056605;19;19982;-55
2022/10/11 04:30:55;;;;;;;;;;;;;;;9.31;100.00;100602.66;3058093;19;19923;-57
2022/10/11 04:32:09;;;;;;;;;;;;;;;9.33;100.00;100603.44;3055965;19;20423;-55
2022/10/11 04:33:21;;;;;;;;;;;;;;;9.33;100.00;100604.28;3056894;19;19941;-54
2022/10/11 04:34:36;;;;;;;;;;;;;;;9.33;100.00;100603.44;3056880;19;19996;-56
2022/10/11 04:35:48;;;;;;;;;;;;;;;9.34;100.00;100610.47;3056996;19;19918;-55
2022/10/11 04:37:03;;;;;;;;;;;;;;;9.32;100.00;100607.03;3056391;19;19914;-53
2022/10/11 04:38:17;;;;;;;;;;;;;;;9.31;100.00;100602.66;3056147;19;19922;-57
2022/10/11 04:39:29;;;;;;;;;;;;;;;9.29;100.00;100604.56;3056789;19;19922;-53
2022/10/11 04:40:44;;;;;;;;;;;;;;;9.26;100.00;100602.06;3057256;19;20355;-58
2022/10/11 04:41:56;;;;;;;;;;;;;;;9.23;100.00;100608.41;3055828;19;20030;-58
2022/10/11 04:43:10;;;;;;;;;;;;;;;9.20;100.00;100603.22;3056306;19;19946;-53
2022/10/11 04:44:23;;;;;;;;;;;;;;;9.18;100.00;100601.59;3056347;19;19926;-57
2022/10/11 04:45:37;;;;;;;;;;;;;;;9.14;100.00;100600.06;3057236;19;19937;-54
2022/10/11 04:46:49;;;;;;;;;;;;;;;9.12;100.00;100604.59;3056790;19;19953;-61
2022/10/11 04:48:04;;;;;;;;;;;;;;;9.10;100.00;100603.81;3057539;19;19951;-52
2022/10/11 04:49:18;;;;;;;;;;;;;;;9.06;100.00;100602.28;3058298;19;19931;-53
2022/10/11 04:50:33;;;;;;;;;;;;;;;9.01;100.00;100598.06;3056686;19;19926;-55
2022/10/11 04:51:45;;;;;;;;;;;;;;;8.97;100.00;100596.47;3057176;19;19919;-54
2022/10/11 04:53:00;;;;;;;;;;;;;;;8.95;100.00;100595.69;3056023;19;19939;-56
2022/10/11 04:54:12;;;;;;;;;;;;;;;8.91;100.00;100591.50;3056854;19;19978;-55
2022/10/11 04:55:27;;;;;;;;;;;;;;;8.89;100.00;100598.69;3056443;19;19915;-55
2022/10/11 04:56:39;;;;;;;;;;;;;;;8.86;100.00;100604.19;3056326;19;19978;-58
2022/10/11 04:57:54;;;;;;;;;;;;;;;8.82;100.00;100599.94;3056433;19;19918;-55
2022/10/11 04:59:06;;;;;;;;;;;;;;;8.78;100.00;100592.22;3056508;19;20054;-55
2022/10/11 05:00:21;;;;;;;;;;;;;;;8.74;100.00;100599.50;3056845;19;19985;-58
2022/10/11 05:01:36;;;;;;;;;;;;;;;8.72;100.00;100601.38;3058679;19;19914;-53
2022/10/11 05:02:51;;;;;;;;;;;;;;;8.68;100.00;100599.84;3056502;19;19940;-57
2022/10/11 05:04:06;;;;;;;;;;;;;;;8.57;100.00;100586.22;3056702;19;20035;-54
2022/10/11 05:05:21;;;;;;;;;;;;;;;8.61;100.00;100604.59;3056158;19;20369;-55
2022/10/11 05:06:35;;;;;;;;;;;;;;;8.59;100.00;100594.97;3058344;19;19974;-55
2022/10/11 05:07:47;;;;;;;;;;;;;;;8.58;100.00;100609.19;2988595;19;19919;-59
2022/10/11 05:09:02;;;;;;;;;;;;;;;8.56;100.00;100605.78;3055447;19;20084;-57
2022/10/11 05:10:14;;;;;;;;;;;;;;;8.54;100.00;100607.66;3055818;19;19978;-55
2022/10/11 05:11:29;;;;;;;;;;;;;;;8.54;100.00;100615.63;3055896;19;19927;-58
2022/10/11 05:12:41;;;;;;;;;;;;;;;8.54;100.00;100612.97;3056414;19;20301;-56
2022/10/11 05:13:55;;;;;;;;;;;;;;;8.54;100.00;100610.31;3055984;19;20266;-56
2022/10/11 05:15:10;;;;;;;;;;;;;;;8.53;100.00;100604.13;3056221;19;20050;-57
2022/10/11 05:16:23;;;;;;;;;;;;;;;8.53;100.00;100606.78;3056478;19;20269;-58
2022/10/11 05:17:38;;;;;;;;;;;;;;;8.53;100.00;100612.13;3056238;19;19923;-56
2022/10/11 05:18:50;;;;;;;;;;;;;;;8.53;100.00;100605.94;3056770;19;20059;-53
2022/10/11 05:20:05;;;;;;;;;;;;;;;8.53;100.00;100605.94;3056318;19;19926;-58
2022/10/11 05:21:20;;;;;;;;;;;;;;;8.52;100.00;100604.22;3055935;19;19922;-55
2022/10/11 05:22:35;;;;;;;;;;;;;;;8.53;100.00;100611.25;3057094;19;19919;-54
2022/10/11 05:23:47;;;;;;;;;;;;;;;8.52;100.00;100609.53;3057944;19;19933;-58
2022/10/11 05:25:02;;;;;;;;;;;;;;;8.53;100.00;100605.94;3057928;19;19933;-53
2022/10/11 05:26:17;;;;;;;;;;;;;;;8.52;100.00;100598.88;3057717;19;19947;-54
2022/10/11 05:27:29;;;;;;;;;;;;;;;8.53;100.00;100596.16;3057830;19;19941;-55
2022/10/11 05:28:44;;;;;;;;;;;;;;;8.56;100.00;100600.47;3057595;19;19919;-55
2022/10/11 05:29:56;;;;;;;;;;;;;;;8.57;100.00;100600.34;3058069;19;19927;-56
2022/10/11 05:31:10;;;;;;;;;;;;;;;8.60;100.00;100607.34;3056816;19;19919;-54
2022/10/11 05:32:26;;;;;;;;;;;;;;;8.63;100.00;100607.19;3052967;19;20188;-57
2022/10/11 05:33:41;;;;;;;;;;;;;;;8.66;100.00;100607.88;3056873;19;19935;-57
2022/10/11 05:34:53;;;;;;;;;;;;;;;8.71;100.00;100599.66;3056500;19;19922;-54
2022/10/11 05:36:08;;;;;;;;;;;;;;;8.77;100.00;100599.34;3057356;19;19925;-56
2022/10/11 05:37:20;;;;;;;;;;;;;;;8.82;100.00;100599.09;3055550;19;19927;-52
2022/10/11 05:38:35;;;;;;;;;;;;;;;8.88;100.00;100606.75;3055429;19;19919;-53
2022/10/11 05:39:50;;;;;;;;;;;;;;;8.94;100.00;100601.97;3056268;19;19918;-58
2022/10/11 05:41:02;;;;;;;;;;;;;;;9.01;100.00;100603.38;3056187;19;19927;-54
2022/10/11 05:42:17;;;;;;;;;;;;;;;9.07;100.00;100598.66;3056109;19;19922;-53
2022/10/11 05:43:29;;;;;;;;;;;;;;;9.14;100.00;100605.38;3056508;19;19994;-53
2022/10/11 05:44:44;;;;;;;;;;;;;;;9.19;100.00;100592.66;3055764;19;19929;-55
2022/10/11 05:45:56;;;;;;;;;;;;;;;9.26;100.00;100596.72;3057444;19;19926;-56
2022/10/11 05:47:10;;;;;;;;;;;;;;;9.31;100.00;100606.16;3055817;19;20273;-52
2022/10/11 05:48:23;;;;;;;;;;;;;;;9.37;100.00;100610.31;3056064;19;19939;-52
2022/10/11 05:49:37;;;;;;;;;;;;;;;9.43;100.00;100609.97;3056332;19;19990;-59
2022/10/11 05:50:49;;;;;;;;;;;;;;;9.51;100.00;100613.09;3056059;19;19934;-51
2022/10/11 05:52:05;;;;;;;;;;;;;;;9.59;100.00;100620.66;3056208;19;19927;-58
2022/10/11 05:53:20;;;;;;;;;;;;;;;9.69;100.00;100617.38;3055916;19;19919;-55
2022/10/11 05:54:32;;;;;;;;;;;;;;;9.80;100.00;100629.25;3055511;19;20322;-51
2022/10/11 05:55:47;;;;;;;;;;;;;;;9.88;100.00;100627.03;3056308;19;20328;-52
2022/10/11 05:56:59;;;;;;;;;;;;;;;9.97;100.00;100622.03;3054876;19;19940;-55
2022/10/11 05:58:17;;;;;;;;;;;;;;;10.09;100.00;100625.78;3055639;19;19923;-58
2022/10/11 05:59:29;;;;;;;;;;;;;;;10.22;100.00;100631.31;3055785;19;19946;-55
2022/10/11 06:00:44;;;;;;;;;;;;;;;10.21;100.00;100614.47;3056005;19;20256;-60
2022/10/11 06:01:56;;;;;;;;;;;;;;;10.45;100.00;100638.84;3056307;19;19919;-57
2022/10/11 06:03:12;;;;;;;;;;;;;;;10.54;100.00;100621.41;3055925;19;20430;-60
2022/10/11 06:04:27;;;;;;;;;;;;;;;10.74;100.00;100642.47;3055542;19;19922;-57
2022/10/11 06:05:39;;;;;;;;;;;;;;;10.88;100.00;100639.81;3055358;19;19943;-56
2022/10/11 06:06:54;;;;;;;;;;;;;;;11.03;100.00;100652.22;3056406;19;19942;-57
2022/10/11 06:08:07;;;;;;;;;;;;;;;11.17;100.00;100649.59;3055836;19;19955;-56
2022/10/11 06:09:22;;;;;;;;;;;;;;;11.33;100.00;100672.69;3055914;19;19930;-54
2022/10/11 06:10:34;;;;;;;;;;;;;;;11.48;100.00;100677.06;3056157;19;20302;-54
2022/10/11 06:11:49;;;;;;;;;;;;;;;11.58;100.00;100675.56;3055620;19;19982;-60
2022/10/11 06:13:01;;;;;;;;;;;;;;;11.73;100.00;100684.41;3055984;19;19930;-59
2022/10/11 06:14:16;;;;;;;;;;;;;;;11.85;100.00;100695.22;3055583;19;19940;-53
2022/10/11 06:15:28;;;;;;;;;;;;;;;11.99;100.00;100698.81;3055691;19;19974;-59
2022/10/11 06:16:43;;;;;;;;;;;;;;;12.13;100.00;100698.81;3056088;19;19922;-59
2022/10/11 06:17:56;;;;;;;;;;;;;;;12.25;100.00;100714.06;3055936;19;19938;-54
2022/10/11 06:19:11;;;;;;;;;;;;;;;12.38;100.00;100717.66;3055949;19;19925;-56
2022/10/11 06:20:26;;;;;;;;;;;;;;;12.50;100.00;100730.25;3055770;19;19930;-57